Ana Sayfa
METAR-TAF:

METAR-TAF

Havaalanları :

Southern Illinois Airport

Carbondale / Murphysboro, Illinois, Amerika Birleşik Devletleri

Enlem: 37-46-59N, Boylam: 089-14-42W, yükseklik: 125 m

Güncel hava durumu gözlemi

Rapor saat 17:52 UTC de 1 saat ve 2 dakika önce yapıldı.
Rüzgar batı/güneybatıdan 4 kt
Sıcaklık 27°C
Nem 48%
Basınç 1017 hPa
Görüş mesafesi: 16.1 km
Açık gökyüzü

METAR: KMDH 121752Z 24004KT 10SM CLR 27/15 A3002 RMK AO2 SLP162 T02720150 10272 20161 58009

Saat: 13:54 (18:54 UTC)


TAF: eksik

4.000'den fazla havaalanı için hava durumu gözlemleri ve tahminleri (METAR ve TAF raporları).

Kullanılabilir istasyonlar harita üzerinde sarı ve kırmızı noktalarla gösterilir.

İstasyonun adını görmek için fareyi noktanın üzerinde gezdirin.

Sonrasında hava gözlem ve tahminlerini görmek için tıklayın.

Haritayı değiştirmek için: yaklaştırmak için siyah artı işaretli yeşil düğmeye ve uzaklaştırmak için de eksi işaretli düğmeye hızla tıklayın; bitişik haritalar için yeşil okları kullanın.


METAR-TAF: